sensor_id;sensor_type;location;lat;lon;timestamp;pressure;altitude;pressure_sealevel;temperature;humidity
58771;BME280;44539;42.962;1.596;2023-02-22T07:57:10;97162.91;;;3.20;100.00
58771;BME280;44539;42.962;1.596;2023-02-22T07:59:37;97171.44;;;3.33;100.00
58771;BME280;44539;42.962;1.596;2023-02-22T08:02:03;97169.56;;;3.45;100.00
58771;BME280;44539;42.962;1.596;2023-02-22T08:04:28;97167.31;;;3.61;100.00
58771;BME280;44539;42.962;1.596;2023-02-22T08:06:54;97170.53;;;3.75;100.00
58771;BME280;44539;42.962;1.596;2023-02-22T08:09:19;97179.16;;;3.86;100.00
58771;BME280;44539;42.962;1.596;2023-02-22T08:11:45;97173.38;;;3.93;100.00
58771;BME280;44539;42.962;1.596;2023-02-22T08:14:15;97175.06;;;4.03;100.00
58771;BME280;44539;42.962;1.596;2023-02-22T08:16:41;97170.66;;;4.04;100.00
58771;BME280;44539;42.962;1.596;2023-02-22T08:19:06;97178.13;;;4.08;100.00
58771;BME280;44539;42.962;1.596;2023-02-22T08:21:32;97174.13;;;4.14;100.00
58771;BME280;44539;42.962;1.596;2023-02-22T08:23:57;97173.56;;;4.20;100.00
58771;BME280;44539;42.962;1.596;2023-02-22T08:26:23;97178.31;;;4.36;100.00
58771;BME280;44539;42.962;1.596;2023-02-22T08:28:49;97175.72;;;4.46;100.00
58771;BME280;44539;42.962;1.596;2023-02-22T08:31:15;97170.75;;;4.62;100.00
58771;BME280;44539;42.962;1.596;2023-02-22T08:33:40;97165.34;;;4.74;100.00
58771;BME280;44539;42.962;1.596;2023-02-22T08:36:06;97172.69;;;4.89;100.00
58771;BME280;44539;42.962;1.596;2023-02-22T08:38:32;97179.47;;;5.02;100.00
58771;BME280;44539;42.962;1.596;2023-02-22T08:40:58;97178.50;;;5.13;100.00
58771;BME280;44539;42.962;1.596;2023-02-22T08:43:23;97180.69;;;5.27;100.00
58771;BME280;44539;42.962;1.596;2023-02-22T08:45:49;97173.31;;;5.40;100.00
58771;BME280;44539;42.962;1.596;2023-02-22T08:48:16;97179.94;;;5.54;100.00
58771;BME280;44539;42.962;1.596;2023-02-22T08:50:42;97176.47;;;5.63;100.00
58771;BME280;44539;42.962;1.596;2023-02-22T08:53:09;97176.41;;;5.73;100.00
58771;BME280;44539;42.962;1.596;2023-02-22T08:55:37;97175.13;;;5.87;100.00
58771;BME280;44539;42.962;1.596;2023-02-22T08:58:04;97180.09;;;6.00;100.00
58771;BME280;44539;42.962;1.596;2023-02-22T09:00:32;97183.94;;;6.05;100.00
58771;BME280;44539;42.962;1.596;2023-02-22T09:03:01;97177.34;;;6.19;100.00
58771;BME280;44539;42.962;1.596;2023-02-22T09:05:27;97169.91;;;6.32;100.00
58771;BME280;44539;42.962;1.596;2023-02-22T09:07:53;97170.16;;;6.39;100.00
58771;BME280;44539;42.962;1.596;2023-02-22T09:10:22;97166.63;;;6.48;100.00
58771;BME280;44539;42.962;1.596;2023-02-22T09:12:52;97165.19;;;6.54;100.00
58771;BME280;44539;42.962;1.596;2023-02-22T09:15:20;97169.44;;;6.65;100.00
58771;BME280;44539;42.962;1.596;2023-02-22T09:17:46;97165.16;;;6.64;100.00
58771;BME280;44539;42.962;1.596;2023-02-22T09:20:12;97158.81;;;6.74;100.00
58771;BME280;44539;42.962;1.596;2023-02-22T09:22:38;97164.38;;;6.89;100.00
58771;BME280;44539;42.962;1.596;2023-02-22T09:25:04;97161.19;;;7.04;100.00
58771;BME280;44539;42.962;1.596;2023-02-22T09:27:30;97169.56;;;7.17;100.00
58771;BME280;44539;42.962;1.596;2023-02-22T09:29:55;97165.16;;;7.26;100.00
58771;BME280;44539;42.962;1.596;2023-02-22T09:32:23;97156.47;;;7.33;100.00
58771;BME280;44539;42.962;1.596;2023-02-22T09:34:48;97157.88;;;7.46;100.00
58771;BME280;44539;42.962;1.596;2023-02-22T09:37:16;97164.91;;;7.63;100.00
58771;BME280;44539;42.962;1.596;2023-02-22T09:39:42;97152.75;;;7.70;100.00
58771;BME280;44539;42.962;1.596;2023-02-22T09:42:15;97152.75;;;7.70;100.00
58771;BME280;44539;42.962;1.596;2023-02-22T09:47:44;97150.63;;;7.82;100.00
58771;BME280;44539;42.962;1.596;2023-02-22T09:50:15;97143.75;;;7.97;100.00
58771;BME280;44539;42.962;1.596;2023-02-22T09:52:53;97143.75;;;7.97;100.00
58771;BME280;44539;42.962;1.596;2023-02-22T09:55:41;97150.09;;;8.05;100.00
58771;BME280;44539;42.962;1.596;2023-02-22T10:00:47;97147.81;;;8.18;100.00
58771;BME280;44539;42.962;1.596;2023-02-22T10:06:36;97143.22;;;8.28;100.00
58771;BME280;44539;42.962;1.596;2023-02-22T10:09:03;97150.69;;;8.33;100.00
58771;BME280;44539;42.962;1.596;2023-02-22T10:22:06;97139.22;;;8.75;100.00
58771;BME280;44539;42.962;1.596;2023-02-22T10:27:18;97138.25;;;9.01;100.00
58771;BME280;44539;42.962;1.596;2023-02-22T10:29:49;97136.22;;;9.11;100.00
58771;BME280;44539;42.962;1.596;2023-02-22T10:32:27;97135.06;;;9.22;100.00
58771;BME280;44539;42.962;1.596;2023-02-22T10:34:57;97128.94;;;9.21;100.00
58771;BME280;44539;42.962;1.596;2023-02-22T10:37:29;97130.09;;;9.27;100.00
58771;BME280;44539;42.962;1.596;2023-02-22T10:40:22;97130.75;;;9.29;100.00
58771;BME280;44539;42.962;1.596;2023-02-22T10:42:57;97130.25;;;9.33;100.00
58771;BME280;44539;42.962;1.596;2023-02-22T10:45:27;97132.75;;;9.35;100.00
58771;BME280;44539;42.962;1.596;2023-02-22T10:47:55;97122.78;;;9.45;100.00
58771;BME280;44539;42.962;1.596;2023-02-22T10:50:25;97131.22;;;9.57;100.00
58771;BME280;44539;42.962;1.596;2023-02-22T10:52:51;97128.88;;;9.62;100.00
58771;BME280;44539;42.962;1.596;2023-02-22T10:55:19;97123.03;;;9.75;100.00
58771;BME280;44539;42.962;1.596;2023-02-22T10:57:48;97123.81;;;9.92;100.00
58771;BME280;44539;42.962;1.596;2023-02-22T11:00:27;97111.19;;;9.94;100.00
58771;BME280;44539;42.962;1.596;2023-02-22T11:02:58;97113.16;;;10.00;100.00
58771;BME280;44539;42.962;1.596;2023-02-22T11:05:38;97111.31;;;10.00;100.00
58771;BME280;44539;42.962;1.596;2023-02-22T11:08:27;97107.53;;;10.03;100.00
58771;BME280;44539;42.962;1.596;2023-02-22T11:11:18;97109.31;;;10.02;100.00
58771;BME280;44539;42.962;1.596;2023-02-22T11:13:39;97110.97;;;10.12;100.00
58771;BME280;44539;42.962;1.596;2023-02-22T11:18:49;97103.63;;;10.22;100.00
58771;BME280;44539;42.962;1.596;2023-02-22T11:21:21;97102.44;;;10.25;100.00
58771;BME280;44539;42.962;1.596;2023-02-22T11:23:47;97101.25;;;10.27;100.00
58771;BME280;44539;42.962;1.596;2023-02-22T11:26:17;97098.31;;;10.22;100.00
58771;BME280;44539;42.962;1.596;2023-02-22T11:28:49;97105.09;;;10.33;100.00
58771;BME280;44539;42.962;1.596;2023-02-22T11:31:26;97090.69;;;10.50;100.00
58771;BME280;44539;42.962;1.596;2023-02-22T11:33:59;97096.53;;;10.69;100.00
58771;BME280;44539;42.962;1.596;2023-02-22T11:36:39;97090.22;;;10.70;100.00
58771;BME280;44539;42.962;1.596;2023-02-22T11:39:28;97086.88;;;10.76;100.00
58771;BME280;44539;42.962;1.596;2023-02-22T11:42:33;97083.84;;;10.79;100.00
58771;BME280;44539;42.962;1.596;2023-02-22T11:45:30;97087.03;;;10.74;100.00
58771;BME280;44539;42.962;1.596;2023-02-22T11:48:00;97074.41;;;10.76;100.00
58771;BME280;44539;42.962;1.596;2023-02-22T11:50:37;97079.78;;;10.68;100.00
58771;BME280;44539;42.962;1.596;2023-02-22T11:58:54;97065.75;;;10.97;98.91
58771;BME280;44539;42.962;1.596;2023-02-22T12:07:09;97066.97;;;10.95;98.43
58771;BME280;44539;42.962;1.596;2023-02-22T12:10:02;97064.56;;;11.00;97.93
58771;BME280;44539;42.962;1.596;2023-02-22T12:12:42;97065.13;;;10.95;99.20
58771;BME280;44539;42.962;1.596;2023-02-22T12:15:22;97063.94;;;10.98;99.13
58771;BME280;44539;42.962;1.596;2023-02-22T12:17:58;97059.97;;;10.94;99.36
58771;BME280;44539;42.962;1.596;2023-02-22T12:20:36;97065.25;;;10.79;100.00
58771;BME280;44539;42.962;1.596;2023-02-22T12:26:00;97064.53;;;10.62;100.00
58771;BME280;44539;42.962;1.596;2023-02-22T12:28:33;97063.25;;;10.58;100.00
58771;BME280;44539;42.962;1.596;2023-02-22T12:31:10;97061.13;;;10.53;100.00
58771;BME280;44539;42.962;1.596;2023-02-22T12:33:54;97063.84;;;10.45;100.00
58771;BME280;44539;42.962;1.596;2023-02-22T12:36:27;97059.53;;;10.44;100.00
58771;BME280;44539;42.962;1.596;2023-02-22T12:39:01;97058.25;;;10.40;100.00
58771;BME280;44539;42.962;1.596;2023-02-22T12:41:41;97057.78;;;10.28;100.00
58771;BME280;44539;42.962;1.596;2023-02-22T12:44:36;97055.47;;;10.25;100.00
58771;BME280;44539;42.962;1.596;2023-02-22T12:47:04;97051.53;;;10.21;100.00
58771;BME280;44539;42.962;1.596;2023-02-22T12:52:15;97054.22;;;10.13;100.00
58771;BME280;44539;42.962;1.596;2023-02-22T12:57:40;97049.47;;;10.00;100.00
58771;BME280;44539;42.962;1.596;2023-02-22T13:02:57;97042.34;;;10.00;100.00
58771;BME280;44539;42.962;1.596;2023-02-22T13:05:24;97040.53;;;10.01;100.00
58771;BME280;44539;42.962;1.596;2023-02-22T13:10:38;97035.03;;;10.02;100.00
58771;BME280;44539;42.962;1.596;2023-02-22T13:18:30;97027.59;;;9.98;100.00
58771;BME280;44539;42.962;1.596;2023-02-22T13:21:05;97032.09;;;9.97;100.00
58771;BME280;44539;42.962;1.596;2023-02-22T13:23:46;97028.78;;;9.95;100.00
58771;BME280;44539;42.962;1.596;2023-02-22T13:26:27;97014.69;;;9.95;100.00
58771;BME280;44539;42.962;1.596;2023-02-22T13:32:23;97010.38;;;9.94;100.00
58771;BME280;44539;42.962;1.596;2023-02-22T13:56:53;97004.16;;;10.10;100.00
58771;BME280;44539;42.962;1.596;2023-02-22T13:59:23;97001.50;;;10.10;100.00
58771;BME280;44539;42.962;1.596;2023-02-22T14:01:50;96998.84;;;10.10;100.00
58771;BME280;44539;42.962;1.596;2023-02-22T14:06:56;97000.19;;;10.06;100.00
58771;BME280;44539;42.962;1.596;2023-02-22T14:09:48;96998.19;;;10.08;100.00
58771;BME280;44539;42.962;1.596;2023-02-22T14:17:43;96986.41;;;10.10;100.00
58771;BME280;44539;42.962;1.596;2023-02-22T14:22:42;96984.56;;;10.11;100.00
58771;BME280;44539;42.962;1.596;2023-02-22T14:27:58;96980.88;;;10.20;100.00
58771;BME280;44539;42.962;1.596;2023-02-22T14:30:32;96982.34;;;10.22;100.00
58771;BME280;44539;42.962;1.596;2023-02-22T14:32:59;96982.50;;;10.21;100.00
58771;BME280;44539;42.962;1.596;2023-02-22T14:35:38;96978.22;;;10.20;100.00
58771;BME280;44539;42.962;1.596;2023-02-22T14:38:15;96982.88;;;10.18;100.00
58771;BME280;44539;42.962;1.596;2023-02-22T14:40:43;96983.16;;;10.23;100.00
58771;BME280;44539;42.962;1.596;2023-02-22T14:43:15;96984.81;;;10.24;100.00
58771;BME280;44539;42.962;1.596;2023-02-22T14:45:54;96986.31;;;10.27;100.00
58771;BME280;44539;42.962;1.596;2023-02-22T14:48:31;96976.50;;;10.27;100.00
58771;BME280;44539;42.962;1.596;2023-02-22T14:51:06;96978.13;;;10.28;100.00
58771;BME280;44539;42.962;1.596;2023-02-22T14:53:41;96991.78;;;10.25;100.00
58771;BME280;44539;42.962;1.596;2023-02-22T14:56:33;96988.94;;;10.27;100.00
58771;BME280;44539;42.962;1.596;2023-02-22T14:59:18;96997.25;;;10.23;100.00
58771;BME280;44539;42.962;1.596;2023-02-22T15:01:44;96990.31;;;10.22;100.00
58771;BME280;44539;42.962;1.596;2023-02-22T15:04:21;96985.34;;;10.19;100.00
58771;BME280;44539;42.962;1.596;2023-02-22T15:06:47;96992.97;;;10.22;100.00
58771;BME280;44539;42.962;1.596;2023-02-22T15:09:18;96987.81;;;10.21;100.00
58771;BME280;44539;42.962;1.596;2023-02-22T15:12:09;96980.34;;;10.25;100.00
58771;BME280;44539;42.962;1.596;2023-02-22T15:14:37;96974.19;;;10.24;100.00
58771;BME280;44539;42.962;1.596;2023-02-22T15:17:12;96978.50;;;10.25;100.00
58771;BME280;44539;42.962;1.596;2023-02-22T15:19:41;96962.28;;;10.20;100.00
58771;BME280;44539;42.962;1.596;2023-02-22T15:22:17;96972.38;;;10.25;100.00
58771;BME280;44539;42.962;1.596;2023-02-22T15:24:47;96974.56;;;10.21;100.00
58771;BME280;44539;42.962;1.596;2023-02-22T15:27:20;96973.72;;;10.20;100.00
58771;BME280;44539;42.962;1.596;2023-02-22T15:29:46;96969.59;;;10.18;100.00
58771;BME280;44539;42.962;1.596;2023-02-22T15:32:28;96964.94;;;10.20;100.00
58771;BME280;44539;42.962;1.596;2023-02-22T15:34:54;96963.44;;;10.17;100.00
58771;BME280;44539;42.962;1.596;2023-02-22T15:37:29;96969.59;;;10.18;100.00
58771;BME280;44539;42.962;1.596;2023-02-22T15:40:07;96968.31;;;10.14;100.00
58771;BME280;44539;42.962;1.596;2023-02-22T15:42:49;96967.94;;;10.17;100.00
58771;BME280;44539;42.962;1.596;2023-02-22T15:45:20;96963.44;;;10.17;100.00
58771;BME280;44539;42.962;1.596;2023-02-22T15:47:48;96965.28;;;10.17;100.00
58771;BME280;44539;42.962;1.596;2023-02-22T15:53:05;96961.16;;;10.14;100.00
58771;BME280;44539;42.962;1.596;2023-02-22T15:55:43;96957.69;;;10.14;100.00
58771;BME280;44539;42.962;1.596;2023-02-22T15:58:19;96955.22;;;10.12;100.00
58771;BME280;44539;42.962;1.596;2023-02-22T16:00:50;96951.41;;;10.07;100.00
58771;BME280;44539;42.962;1.596;2023-02-22T16:03:21;96955.56;;;10.09;100.00
58771;BME280;44539;42.962;1.596;2023-02-22T16:05:53;96950.44;;;10.08;100.00
58771;BME280;44539;42.962;1.596;2023-02-22T16:08:24;96956.72;;;10.07;100.00
58771;BME280;44539;42.962;1.596;2023-02-22T16:10:51;96951.78;;;10.04;100.00
58771;BME280;44539;42.962;1.596;2023-02-22T16:13:23;96960.56;;;10.04;100.00
58771;BME280;44539;42.962;1.596;2023-02-22T16:16:00;96960.41;;;10.06;100.00
58771;BME280;44539;42.962;1.596;2023-02-22T16:18:32;96956.94;;;10.05;100.00
58771;BME280;44539;42.962;1.596;2023-02-22T16:21:09;96951.41;;;10.07;100.00
58771;BME280;44539;42.962;1.596;2023-02-22T16:23:54;96956.72;;;10.07;100.00
58771;BME280;44539;42.962;1.596;2023-02-22T16:26:31;96952.59;;;10.04;100.00
58771;BME280;44539;42.962;1.596;2023-02-22T16:29:02;96957.25;;;10.02;100.00
58771;BME280;44539;42.962;1.596;2023-02-22T16:31:34;96953.97;;;10.00;100.00
58771;BME280;44539;42.962;1.596;2023-02-22T16:34:05;96948.81;;;9.98;100.00
58771;BME280;44539;42.962;1.596;2023-02-22T16:36:45;96945.56;;;9.96;100.00
58771;BME280;44539;42.962;1.596;2023-02-22T16:39:26;96951.19;;;9.93;100.00
58771;BME280;44539;42.962;1.596;2023-02-22T16:41:55;96947.88;;;9.91;100.00
58771;BME280;44539;42.962;1.596;2023-02-22T16:44:21;96947.88;;;9.91;100.00
58771;BME280;44539;42.962;1.596;2023-02-22T16:46:50;96950.72;;;9.90;100.00
58771;BME280;44539;42.962;1.596;2023-02-22T16:49:16;96949.25;;;9.87;100.00
58771;BME280;44539;42.962;1.596;2023-02-22T16:51:46;96943.94;;;9.87;100.00
58771;BME280;44539;42.962;1.596;2023-02-22T16:54:20;96943.28;;;9.85;100.00
58771;BME280;44539;42.962;1.596;2023-02-22T16:56:47;96942.63;;;9.83;100.00
58771;BME280;44539;42.962;1.596;2023-02-22T16:59:14;96938.34;;;9.82;100.00
58771;BME280;44539;42.962;1.596;2023-02-22T17:01:40;96939.53;;;9.79;100.00
58771;BME280;44539;42.962;1.596;2023-02-22T17:04:13;96942.81;;;9.81;100.00
58771;BME280;44539;42.962;1.596;2023-02-22T17:06:39;96946.31;;;9.82;100.00
58771;BME280;44539;42.962;1.596;2023-02-22T17:09:04;96940.69;;;9.77;100.00
58771;BME280;44539;42.962;1.596;2023-02-22T17:11:30;96943.16;;;9.78;100.00
58771;BME280;44539;42.962;1.596;2023-02-22T17:13:55;96934.38;;;9.78;100.00
58771;BME280;44539;42.962;1.596;2023-02-22T17:16:21;96935.72;;;9.74;100.00
58771;BME280;44539;42.962;1.596;2023-02-22T17:18:47;96939.09;;;9.68;100.00
58771;BME280;44539;42.962;1.596;2023-02-22T17:21:14;96941.25;;;9.64;100.00
58771;BME280;44539;42.962;1.596;2023-02-22T17:23:41;96938.13;;;9.60;100.00
58771;BME280;44539;42.962;1.596;2023-02-22T17:26:10;96940.13;;;9.58;100.00
58771;BME280;44539;42.962;1.596;2023-02-22T17:28:38;96937.47;;;9.58;100.00
58771;BME280;44539;42.962;1.596;2023-02-22T17:31:04;96938.47;;;9.57;100.00
58771;BME280;44539;42.962;1.596;2023-02-22T17:33:34;96936.63;;;9.58;100.00
58771;BME280;44539;42.962;1.596;2023-02-22T17:36:02;96939.81;;;9.53;100.00
58771;BME280;44539;42.962;1.596;2023-02-22T17:38:29;96937.34;;;9.52;100.00
